Time;durP1;ratioP1;P1;durP2;ratioP2;P2;SDS_P1;SDS_P2;PMS_P1;PMS_P2;Temp;Humidity;BMP_temperature;BMP_pressure;BME280_temperature;BME280_humidity;BME280_pressure;Samples;Min_cycle;Max_cycle;Signal;HPM_P1;HPM_P2
2022/10/28 00:01:33;;;;;;;6.60;6.00;;;16.90;99.90;;;;;;6212560;23;20205;-67
2022/10/28 00:04:00;;;;;;;7.20;6.27;;;16.90;99.90;;;;;;6212628;23;20598;-67
2022/10/28 00:06:29;;;;;;;6.27;5.73;;;16.90;99.90;;;;;;6212196;23;20531;-68
2022/10/28 00:08:55;;;;;;;6.57;5.83;;;17.00;99.90;;;;;;6211990;23;20170;-67
2022/10/28 00:11:26;;;;;;;7.37;5.20;;;17.00;99.90;;;;;;6223850;23;20146;-68
2022/10/28 00:13:53;;;;;;;7.20;5.97;;;17.10;99.90;;;;;;6212104;23;20154;-67
2022/10/28 00:16:22;;;;;;;7.03;5.20;;;17.10;99.90;;;;;;6211958;23;20161;-68
2022/10/28 00:18:49;;;;;;;7.63;5.43;;;17.10;99.90;;;;;;6224098;23;20167;-68
2022/10/28 00:21:17;;;;;;;5.47;5.07;;;17.10;99.90;;;;;;6223432;23;20143;-67
2022/10/28 00:23:43;;;;;;;6.90;6.13;;;17.10;99.90;;;;;;6212294;23;20154;-68
2022/10/28 00:26:11;;;;;;;5.97;5.47;;;17.20;99.90;;;;;;6212498;23;20154;-67
2022/10/28 00:28:46;;;;;;;8.20;5.10;;;17.20;99.90;;;;;;6223372;23;20520;-68
2022/10/28 00:31:15;;;;;;;6.67;5.63;;;17.20;99.90;;;;;;6223297;23;20162;-68
2022/10/28 00:33:40;;;;;;;6.27;5.63;;;17.20;99.90;;;;;;6223340;23;20246;-67
2022/10/28 00:36:18;;;;;;;10.77;5.73;;;17.20;99.90;;;;;;6224097;23;20154;-68
2022/10/28 00:38:47;;;;;;;9.97;5.93;;;17.30;99.90;;;;;;6223755;23;20194;-68
2022/10/28 00:41:19;;;;;;;8.90;6.23;;;17.30;99.90;;;;;;6211620;23;20270;-67
2022/10/28 00:43:47;;;;;;;5.60;5.17;;;17.30;99.90;;;;;;6223609;23;20318;-68
2022/10/28 00:46:17;;;;;;;6.43;5.93;;;17.30;99.90;;;;;;6223676;23;20169;-67
2022/10/28 00:48:46;;;;;;;6.47;5.80;;;17.30;99.90;;;;;;6223378;23;20174;-67
2022/10/28 00:51:13;;;;;;;6.17;5.57;;;17.40;99.90;;;;;;6211569;23;20151;-67
2022/10/28 00:53:41;;;;;;;6.70;6.13;;;17.40;99.90;;;;;;6211793;23;20150;-67
2022/10/28 00:56:07;;;;;;;7.70;5.40;;;17.40;99.90;;;;;;6223830;23;20155;-67
2022/10/28 00:58:33;;;;;;;6.37;5.80;;;17.40;99.90;;;;;;6223313;23;20178;-67
2022/10/28 01:00:59;;;;;;;14.20;5.73;;;17.40;99.90;;;;;;6211788;23;20624;-68
2022/10/28 01:03:25;;;;;;;7.30;6.67;;;17.40;99.90;;;;;;6223480;23;20151;-67
2022/10/28 01:05:52;;;;;;;7.70;5.63;;;17.40;99.90;;;;;;6223498;23;20174;-68
2022/10/28 01:08:18;;;;;;;6.13;5.63;;;17.40;99.90;;;;;;6223552;23;20171;-68
2022/10/28 01:11:02;;;;;;;7.17;5.60;;;17.30;99.90;;;;;;6223368;23;20174;-69
2022/10/28 01:13:57;;;;;;;6.20;5.67;;;17.30;99.90;;;;;;6223530;23;20146;-69
2022/10/28 01:16:39;;;;;;;9.77;5.83;;;17.30;99.90;;;;;;6224304;23;20142;-69
2022/10/28 01:19:34;;;;;;;6.17;5.57;;;17.20;99.90;;;;;;6225342;23;20166;-68
2022/10/28 01:22:18;;;;;;;6.20;5.70;;;17.20;99.90;;;;;;6213827;23;20461;-69
2022/10/28 01:25:12;;;;;;;7.23;6.27;;;17.20;99.90;;;;;;6213601;23;20143;-69
2022/10/28 01:27:50;;;;;;;6.30;5.50;;;17.20;99.90;;;;;;6225333;23;20167;-68
2022/10/28 01:30:18;;;;;;;6.17;5.60;;;17.20;99.90;;;;;;6224939;23;20147;-68
2022/10/28 01:33:06;;;;;;;8.00;5.47;;;17.20;99.90;;;;;;6225681;23;20483;-68
2022/10/28 01:35:40;;;;;;;6.93;5.57;;;17.30;99.90;;;;;;6225523;23;20131;-68
2022/10/28 01:38:23;;;;;;;5.93;5.43;;;17.20;99.90;;;;;;6214049;23;20190;-67
2022/10/28 01:41:07;;;;;;;9.43;5.90;;;17.20;99.90;;;;;;6225124;23;20139;-68
2022/10/28 01:43:47;;;;;;;6.87;5.63;;;17.10;99.90;;;;;;6225027;23;20143;-68
2022/10/28 01:46:24;;;;;;;6.37;5.87;;;17.10;99.90;;;;;;6225241;23;20126;-68
2022/10/28 01:48:55;;;;;;;6.03;5.43;;;17.00;99.90;;;;;;6225118;23;20174;-68
2022/10/28 01:51:33;;;;;;;7.30;5.97;;;16.90;99.90;;;;;;6213018;23;20487;-68
2022/10/28 01:54:03;;;;;;;6.63;6.00;;;16.90;99.90;;;;;;6225035;23;20158;-68
2022/10/28 01:56:40;;;;;;;6.40;5.80;;;16.90;99.90;;;;;;6225112;23;20634;-68
2022/10/28 01:59:13;;;;;;;7.97;5.60;;;16.90;99.90;;;;;;6224917;23;20184;-68
2022/10/28 02:01:39;;;;;;;6.67;5.27;;;16.90;99.90;;;;;;6224935;23;20629;-68
2022/10/28 02:04:04;;;;;;;6.57;5.47;;;16.80;99.90;;;;;;6225044;23;20147;-68
2022/10/28 02:06:31;;;;;;;6.13;5.60;;;16.90;99.90;;;;;;6224839;23;20151;-69
2022/10/28 02:09:15;;;;;;;8.30;5.27;;;16.90;99.90;;;;;;6225024;23;20167;-68
2022/10/28 02:11:53;;;;;;;6.37;5.47;;;16.90;99.90;;;;;;6224868;23;20206;-67
2022/10/28 02:14:50;;;;;;;8.97;5.33;;;16.90;99.90;;;;;;6213190;23;20178;-68
2022/10/28 02:17:30;;;;;;;10.17;4.90;;;16.90;99.90;;;;;;6157202;23;20175;-68
2022/10/28 02:20:06;;;;;;;7.43;5.27;;;16.90;99.90;;;;;;6212609;23;20714;-67
2022/10/28 02:22:57;;;;;;;7.00;5.83;;;16.80;99.90;;;;;;6224695;23;20468;-68
2022/10/28 02:25:43;;;;;;;6.43;5.60;;;16.80;99.90;;;;;;6199516;23;20212;-68
2022/10/28 02:28:13;;;;;;;6.50;5.67;;;16.70;99.90;;;;;;6224491;23;20193;-68
2022/10/28 02:30:50;;;;;;;5.97;5.30;;;16.70;99.90;;;;;;6224260;23;20150;-68
2022/10/28 02:33:20;;;;;;;5.90;5.40;;;16.70;99.90;;;;;;6224703;23;20166;-68
2022/10/28 02:35:51;;;;;;;7.33;5.57;;;16.60;99.90;;;;;;6224663;23;20487;-68
2022/10/28 02:38:26;;;;;;;5.57;5.17;;;16.60;99.90;;;;;;6212753;23;20191;-66
2022/10/28 02:40:57;;;;;;;7.23;6.10;;;16.60;99.90;;;;;;6224392;23;20141;-68
2022/10/28 02:43:24;;;;;;;5.77;5.27;;;16.60;99.90;;;;;;6224493;23;20136;-68
2022/10/28 02:45:54;;;;;;;11.33;5.70;;;16.60;99.90;;;;;;6224700;23;20696;-68
2022/10/28 02:48:40;;;;;;;7.33;5.30;;;16.50;99.90;;;;;;6224396;23;20170;-68
2022/10/28 02:51:10;;;;;;;8.33;5.40;;;16.50;99.90;;;;;;6224714;23;20138;-68
2022/10/28 02:53:58;;;;;;;6.00;5.30;;;16.40;99.90;;;;;;6211473;23;20150;-68
2022/10/28 02:56:23;;;;;;;5.67;5.17;;;16.40;99.90;;;;;;6213082;23;20147;-68
2022/10/28 02:58:49;;;;;;;7.83;5.70;;;16.40;99.90;;;;;;6224289;23;20622;-68
2022/10/28 03:01:15;;;;;;;7.37;5.73;;;16.30;99.90;;;;;;6224217;23;20197;-68
2022/10/28 03:03:41;;;;;;;6.07;5.57;;;16.30;99.90;;;;;;6224157;23;20545;-68
2022/10/28 03:06:07;;;;;;;7.93;5.30;;;16.30;99.90;;;;;;6224548;23;20230;-68
2022/10/28 03:08:32;;;;;;;5.80;5.30;;;16.30;99.90;;;;;;6224106;23;20257;-68
2022/10/28 03:10:58;;;;;;;6.03;5.23;;;16.30;99.90;;;;;;6222974;23;20514;-68
2022/10/28 03:13:23;;;;;;;6.70;5.53;;;16.20;99.90;;;;;;6224095;23;20151;-68
2022/10/28 03:15:49;;;;;;;7.50;5.17;;;16.20;99.90;;;;;;6212559;23;20154;-68
2022/10/28 03:18:14;;;;;;;6.30;5.70;;;16.20;99.90;;;;;;6224268;23;20642;-68
2022/10/28 03:20:40;;;;;;;6.63;5.80;;;16.30;99.90;;;;;;6212017;23;20147;-68
2022/10/28 03:23:06;;;;;;;10.07;5.57;;;16.30;99.90;;;;;;6213013;23;20155;-69
2022/10/28 03:25:31;;;;;;;5.33;4.80;;;16.30;99.90;;;;;;6224098;23;20143;-68
2022/10/28 03:27:57;;;;;;;9.43;6.00;;;16.40;99.90;;;;;;6224629;23;20641;-68
2022/10/28 03:30:22;;;;;;;6.37;5.17;;;16.40;99.90;;;;;;6212149;23;20201;-68
2022/10/28 03:32:48;;;;;;;11.03;6.17;;;16.40;99.90;;;;;;6212761;23;20242;-69
2022/10/28 03:35:14;;;;;;;6.83;5.83;;;16.50;99.90;;;;;;6224276;23;20215;-68
2022/10/28 03:37:43;;;;;;;7.90;5.87;;;16.50;99.90;;;;;;6224086;23;20178;-68
2022/10/28 03:40:10;;;;;;;5.83;5.33;;;16.50;99.90;;;;;;6223616;23;20637;-68
2022/10/28 03:42:36;;;;;;;6.10;5.57;;;16.50;99.90;;;;;;6223788;23;20583;-68
2022/10/28 03:45:01;;;;;;;6.13;5.60;;;16.50;99.90;;;;;;6224095;23;20139;-68
2022/10/28 03:47:27;;;;;;;7.10;5.17;;;16.50;99.90;;;;;;6223819;23;20150;-68
2022/10/28 03:49:52;;;;;;;5.60;5.20;;;16.40;99.90;;;;;;6212172;23;20162;-68
2022/10/28 03:52:18;;;;;;;9.87;5.93;;;16.40;99.90;;;;;;6211264;23;20665;-68
2022/10/28 03:54:44;;;;;;;6.20;5.70;;;16.40;99.90;;;;;;6223851;23;20274;-68
2022/10/28 03:57:09;;;;;;;10.83;5.50;;;16.30;99.90;;;;;;6224509;23;20167;-68
2022/10/28 03:59:35;;;;;;;5.77;5.23;;;16.30;99.90;;;;;;6223515;23;20660;-68
2022/10/28 04:02:00;;;;;;;6.10;5.50;;;16.20;99.90;;;;;;6212209;23;20155;-68
2022/10/28 04:04:26;;;;;;;6.47;5.23;;;16.20;99.90;;;;;;6224014;23;20622;-68
2022/10/28 04:06:51;;;;;;;8.80;5.47;;;16.20;99.90;;;;;;6223732;23;20196;-68
2022/10/28 04:09:17;;;;;;;5.37;4.97;;;16.20;99.90;;;;;;6223576;23;20166;-68
2022/10/28 04:11:43;;;;;;;6.07;5.40;;;16.10;99.90;;;;;;6223881;23;20595;-68
2022/10/28 04:14:08;;;;;;;9.90;5.33;;;16.10;99.90;;;;;;6212117;23;20158;-68
2022/10/28 04:16:34;;;;;;;7.77;5.33;;;16.10;99.90;;;;;;6223518;23;20491;-68
2022/10/28 04:18:59;;;;;;;6.60;6.00;;;16.00;99.90;;;;;;6223724;23;20158;-68
2022/10/28 04:21:25;;;;;;;5.40;4.90;;;16.00;99.90;;;;;;6223372;23;20604;-68
2022/10/28 04:23:50;;;;;;;5.97;5.30;;;16.00;99.90;;;;;;6223768;23;20154;-68
2022/10/28 04:26:16;;;;;;;7.90;5.20;;;15.90;99.90;;;;;;6223615;23;20147;-68
2022/10/28 04:28:42;;;;;;;5.53;5.03;;;15.90;99.90;;;;;;6223555;23;20653;-68
2022/10/28 04:31:09;;;;;;;6.13;5.57;;;15.70;99.90;;;;;;6223326;23;20147;-69
2022/10/28 04:33:34;;;;;;;7.23;6.73;;;15.70;99.90;;;;;;6223637;23;20598;-68
2022/10/28 04:36:00;;;;;;;7.77;6.07;;;15.70;99.90;;;;;;6223721;23;20175;-68
2022/10/28 04:38:25;;;;;;;8.70;6.70;;;15.60;99.90;;;;;;6211996;23;20190;-68
2022/10/28 04:40:51;;;;;;;7.97;6.13;;;15.60;99.90;;;;;;6211600;23;20682;-68
2022/10/28 04:43:17;;;;;;;5.97;5.17;;;15.60;99.90;;;;;;6212155;23;20151;-68
2022/10/28 04:45:43;;;;;;;8.33;5.90;;;15.60;99.90;;;;;;6224040;23;20157;-69
2022/10/28 04:48:09;;;;;;;7.03;6.33;;;15.70;99.90;;;;;;6212143;23;20186;-68
2022/10/28 04:50:35;;;;;;;6.03;5.53;;;15.70;99.90;;;;;;6223764;23;20143;-68
2022/10/28 04:53:00;;;;;;;5.87;5.20;;;15.70;99.90;;;;;;6224830;23;20743;-68
2022/10/28 04:55:26;;;;;;;9.07;5.20;;;15.60;99.90;;;;;;6225432;23;20181;-68
2022/10/28 04:57:53;;;;;;;9.33;5.47;;;15.60;99.90;;;;;;6225579;23;20258;-68
2022/10/28 05:00:19;;;;;;;9.77;6.33;;;15.60;99.90;;;;;;6225748;23;20151;-68
2022/10/28 05:02:45;;;;;;;9.97;7.10;;;15.60;99.90;;;;;;6225886;23;20246;-68
2022/10/28 05:05:10;;;;;;;6.50;5.80;;;15.60;99.90;;;;;;6225579;23;20151;-68
2022/10/28 05:07:37;;;;;;;5.97;5.50;;;15.50;99.90;;;;;;6225797;23;20166;-68
2022/10/28 05:10:03;;;;;;;8.40;5.90;;;15.50;99.90;;;;;;6225198;23;20550;-68
2022/10/28 05:12:28;;;;;;;11.40;4.97;;;15.40;99.90;;;;;;6225508;23;20205;-68
2022/10/28 05:14:54;;;;;;;7.07;5.50;;;15.40;99.90;;;;;;6225346;23;20484;-68
2022/10/28 05:17:19;;;;;;;9.77;6.93;;;15.40;99.90;;;;;;6225835;23;20171;-68
2022/10/28 05:19:45;;;;;;;7.00;6.30;;;15.40;99.90;;;;;;6224987;23;20158;-68
2022/10/28 05:22:11;;;;;;;7.20;6.60;;;15.50;99.90;;;;;;6214282;23;20151;-68
2022/10/28 05:24:36;;;;;;;8.13;6.10;;;15.50;99.90;;;;;;6225682;23;20147;-68
2022/10/28 05:27:02;;;;;;;6.23;5.73;;;15.50;99.90;;;;;;6225627;23;20158;-68
2022/10/28 05:29:27;;;;;;;10.17;6.63;;;15.60;99.90;;;;;;6224745;23;20178;-69
2022/10/28 05:31:53;;;;;;;7.07;6.30;;;15.70;99.90;;;;;;6225282;23;20166;-68
2022/10/28 05:34:18;;;;;;;9.07;6.00;;;15.70;99.90;;;;;;6225744;23;20151;-68
2022/10/28 05:36:44;;;;;;;13.83;7.50;;;15.60;99.90;;;;;;6225220;23;20170;-68
2022/10/28 05:39:12;;;;;;;8.50;6.97;;;15.70;99.90;;;;;;6224944;23;20163;-68
2022/10/28 05:41:38;;;;;;;9.63;6.57;;;15.70;99.90;;;;;;6213670;23;20151;-68
2022/10/28 05:44:04;;;;;;;9.13;6.27;;;15.70;99.90;;;;;;6225189;23;20429;-68
2022/10/28 05:46:29;;;;;;;7.30;6.03;;;15.70;99.90;;;;;;6225086;23;20150;-69
2022/10/28 05:48:55;;;;;;;7.87;6.20;;;15.70;99.90;;;;;;6225055;23;20158;-68
2022/10/28 05:51:21;;;;;;;7.50;6.80;;;15.70;99.90;;;;;;6225056;23;20177;-68
2022/10/28 05:53:46;;;;;;;11.13;6.90;;;15.70;99.90;;;;;;6224949;23;20254;-68
2022/10/28 05:56:12;;;;;;;6.40;5.90;;;15.70;99.90;;;;;;6225463;23;20197;-68
2022/10/28 05:58:37;;;;;;;6.20;5.60;;;15.70;99.90;;;;;;6224874;23;20182;-68
2022/10/28 06:01:06;;;;;;;7.53;6.60;;;15.70;99.90;;;;;;6224569;23;20147;-68
2022/10/28 06:03:32;;;;;;;7.67;6.40;;;15.80;99.90;;;;;;6224858;23;20146;-69
2022/10/28 06:05:58;;;;;;;11.73;5.87;;;15.80;99.90;;;;;;6225099;23;20147;-68
2022/10/28 06:08:23;;;;;;;6.00;5.50;;;15.90;99.90;;;;;;6224998;23;20543;-68
2022/10/28 06:10:51;;;;;;;6.53;5.90;;;16.00;99.90;;;;;;6224836;23;20209;-68
2022/10/28 06:13:16;;;;;;;9.83;5.73;;;16.10;99.90;;;;;;6223488;23;20158;-68
2022/10/28 06:15:42;;;;;;;12.17;5.67;;;16.10;99.90;;;;;;6212603;23;20213;-69
2022/10/28 06:18:08;;;;;;;5.57;5.17;;;16.20;99.90;;;;;;6213430;23;20191;-68
2022/10/28 06:20:33;;;;;;;7.70;7.10;;;16.20;99.90;;;;;;6224619;23;20583;-69
2022/10/28 06:22:59;;;;;;;8.70;7.50;;;16.10;99.90;;;;;;6225086;23;20155;-69
2022/10/28 06:25:26;;;;;;;7.03;6.43;;;16.10;99.90;;;;;;6212987;23;20155;-69
2022/10/28 06:27:56;;;;;;;7.97;5.83;;;16.10;99.90;;;;;;6224675;23;20218;-68
2022/10/28 06:30:22;;;;;;;7.67;5.93;;;16.10;99.90;;;;;;6212921;23;20489;-68
2022/10/28 06:32:48;;;;;;;6.10;5.60;;;16.00;99.90;;;;;;6225053;23;20158;-68
2022/10/28 06:35:14;;;;;;;7.67;6.87;;;16.00;99.90;;;;;;6212863;23;20159;-68
2022/10/28 06:37:39;;;;;;;6.70;6.20;;;15.90;99.90;;;;;;6212839;23;20581;-68
2022/10/28 06:40:06;;;;;;;8.03;6.20;;;15.90;99.90;;;;;;6224550;23;20591;-68
2022/10/28 06:42:31;;;;;;;6.33;5.60;;;15.90;99.90;;;;;;6224520;23;20174;-69
2022/10/28 06:44:57;;;;;;;5.93;5.43;;;15.90;99.90;;;;;;6212594;23;20151;-69
2022/10/28 06:47:22;;;;;;;7.17;5.97;;;15.90;99.90;;;;;;6224503;23;20642;-68
2022/10/28 06:49:48;;;;;;;7.40;5.97;;;15.90;99.90;;;;;;6223908;23;20237;-68
2022/10/28 06:52:14;;;;;;;11.27;6.97;;;15.90;99.90;;;;;;6224507;23;20147;-68
2022/10/28 06:54:39;;;;;;;9.50;6.30;;;16.00;99.90;;;;;;6212404;23;20604;-69
2022/10/28 06:57:05;;;;;;;6.47;5.90;;;16.10;99.90;;;;;;6224352;23;20171;-68
2022/10/28 06:59:30;;;;;;;6.80;6.17;;;16.10;99.90;;;;;;6223801;23;20500;-68
2022/10/28 07:01:56;;;;;;;8.63;6.40;;;16.20;99.90;;;;;;6224320;23;20544;-68
2022/10/28 07:04:22;;;;;;;5.57;5.13;;;16.20;99.90;;;;;;6224206;23;20197;-67
2022/10/28 07:06:47;;;;;;;9.97;6.17;;;16.20;99.90;;;;;;6212508;23;20197;-66
2022/10/28 07:09:13;;;;;;;6.30;5.70;;;16.30;99.90;;;;;;6212607;23;20179;-66
2022/10/28 07:11:42;;;;;;;7.90;6.20;;;16.30;99.90;;;;;;6223837;23;20150;-67
2022/10/28 07:14:08;;;;;;;11.30;5.97;;;16.40;99.90;;;;;;6223680;23;20166;-66
2022/10/28 07:16:34;;;;;;;6.67;5.43;;;16.40;99.90;;;;;;6223925;23;20162;-67
2022/10/28 07:18:59;;;;;;;10.90;5.73;;;16.50;99.90;;;;;;6224064;23;20170;-67
2022/10/28 07:21:27;;;;;;;8.73;7.03;;;16.60;99.90;;;;;;6224104;23;20151;-67
2022/10/28 07:23:54;;;;;;;6.50;5.13;;;16.80;99.90;;;;;;6212584;23;20158;-67
2022/10/28 07:26:21;;;;;;;6.10;5.60;;;16.90;99.90;;;;;;6224277;23;20139;-67
2022/10/28 07:28:46;;;;;;;7.83;5.70;;;17.20;99.90;;;;;;6224195;23;20488;-68
2022/10/28 07:31:12;;;;;;;6.90;6.30;;;17.40;99.90;;;;;;6223983;23;20146;-67
2022/10/28 07:33:37;;;;;;;10.20;6.40;;;17.50;99.90;;;;;;6223763;23;20230;-67
2022/10/28 07:36:05;;;;;;;8.63;6.20;;;17.60;99.90;;;;;;6224664;23;20197;-67
2022/10/28 07:38:32;;;;;;;10.67;6.33;;;17.70;99.90;;;;;;6223953;23;20492;-67
2022/10/28 07:40:57;;;;;;;12.93;5.33;;;17.80;99.90;;;;;;6212248;23;20158;-67
2022/10/28 07:43:23;;;;;;;4.90;4.50;;;18.00;99.90;;;;;;6212327;23;20606;-68
2022/10/28 07:45:55;;;;;;;8.70;4.90;;;18.10;99.90;;;;;;6223706;23;20201;-68
2022/10/28 07:48:21;;;;;;;5.90;4.80;;;18.20;99.90;;;;;;6223244;23;20166;-69
2022/10/28 07:50:47;;;;;;;7.77;5.17;;;18.30;99.90;;;;;;6211714;23;20578;-68
2022/10/28 07:53:12;;;;;;;8.80;6.63;;;18.50;99.90;;;;;;6223479;23;20151;-67
2022/10/28 07:55:38;;;;;;;6.80;6.20;;;18.50;99.90;;;;;;6222153;23;20189;-68
2022/10/28 07:58:03;;;;;;;6.33;5.73;;;18.50;99.90;;;;;;6223498;23;20217;-68
2022/10/28 08:00:29;;;;;;;6.83;6.20;;;18.60;99.90;;;;;;6223337;23;20143;-68
2022/10/28 08:02:55;;;;;;;10.10;7.17;;;18.60;99.90;;;;;;6223832;23;20583;-67
2022/10/28 08:05:20;;;;;;;11.03;5.50;;;18.60;99.90;;;;;;6222549;23;20167;-68
2022/10/28 08:07:46;;;;;;;7.23;6.63;;;18.70;99.90;;;;;;6223465;23;20201;-68
2022/10/28 08:10:12;;;;;;;5.70;5.20;;;18.90;99.90;;;;;;6223947;23;20151;-68
2022/10/28 08:12:38;;;;;;;6.57;6.07;;;19.10;99.90;;;;;;6212007;23;20787;-68
2022/10/28 08:15:04;;;;;;;6.47;4.80;;;19.30;99.90;;;;;;6211921;23;20155;-68
2022/10/28 08:17:30;;;;;;;6.00;5.13;;;19.50;99.90;;;;;;6223386;23;20209;-68
2022/10/28 08:19:55;;;;;;;7.50;5.50;;;19.50;99.90;;;;;;6223198;23;20147;-68
2022/10/28 08:22:21;;;;;;;6.37;5.77;;;19.50;99.90;;;;;;6223755;23;20146;-68
2022/10/28 08:24:47;;;;;;;5.93;5.43;;;19.50;99.90;;;;;;6220993;23;20146;-68
2022/10/28 08:27:12;;;;;;;6.10;5.50;;;19.50;99.90;;;;;;6223547;23;20146;-68
2022/10/28 08:29:38;;;;;;;5.93;4.90;;;19.60;99.90;;;;;;6222909;23;20193;-68
2022/10/28 08:32:07;;;;;;;5.40;4.90;;;19.60;99.90;;;;;;6223768;23;20591;-67
2022/10/28 08:34:32;;;;;;;7.77;4.93;;;19.60;99.90;;;;;;6211752;23;20182;-67
2022/10/28 08:36:58;;;;;;;6.37;4.90;;;19.50;99.90;;;;;;6223566;23;20618;-68
2022/10/28 08:39:23;;;;;;;6.57;4.73;;;19.60;99.90;;;;;;6211619;23;20266;-67
2022/10/28 08:41:59;;;;;;;8.50;4.87;;;19.50;99.90;;;;;;6223688;23;20147;-67
2022/10/28 08:44:56;;;;;;;5.80;5.20;;;19.60;99.90;;;;;;6223596;23;20135;-68
2022/10/28 08:47:33;;;;;;;5.53;4.97;;;19.70;99.90;;;;;;6223585;23;20142;-68
2022/10/28 08:50:09;;;;;;;6.37;4.97;;;19.80;99.90;;;;;;6222938;23;20570;-67
2022/10/28 08:52:49;;;;;;;7.37;5.87;;;20.00;99.90;;;;;;6211757;23;20173;-68
2022/10/28 08:55:49;;;;;;;7.00;5.87;;;20.10;99.90;;;;;;6223271;23;20138;-68
2022/10/28 08:58:14;;;;;;;7.63;5.13;;;20.30;99.90;;;;;;6201554;23;20236;-68
2022/10/28 09:00:45;;;;;;;4.90;4.40;;;20.90;99.90;;;;;;6222996;23;20226;-68
2022/10/28 09:03:11;;;;;;;13.65;4.45;;;21.50;99.90;;;;;;6223182;23;20146;-68
2022/10/28 09:05:43;;;;;;;9.00;5.28;;;22.10;99.90;;;;;;6222529;23;20139;-68
2022/10/28 09:08:27;;;;;;;10.93;4.50;;;22.60;99.90;;;;;;6222888;23;20174;-68
2022/10/28 09:11:26;;;;;;;9.07;4.60;;;23.10;99.90;;;;;;6222924;23;20138;-69
2022/10/28 09:14:07;;;;;;;5.18;4.45;;;23.40;99.90;;;;;;6223082;23;20218;-68
2022/10/28 09:17:02;;;;;;;4.18;3.78;;;23.60;99.90;;;;;;6223249;23;20141;-68
2022/10/28 09:19:27;;;;;;;6.47;4.47;;;23.90;99.90;;;;;;6222851;23;20217;-68
2022/10/28 09:22:14;;;;;;;5.68;3.78;;;24.10;99.90;;;;;;6211580;23;20147;-68
2022/10/28 09:24:55;;;;;;;4.00;3.70;;;24.40;99.90;;;;;;6223225;23;20567;-69
2022/10/28 09:27:29;;;;;;;5.45;4.60;;;24.80;99.90;;;;;;6223034;23;20181;-68
2022/10/28 09:30:03;;;;;;;6.45;4.63;;;25.00;99.90;;;;;;6223604;23;20142;-68
2022/10/28 09:32:37;;;;;;;7.22;4.85;;;24.90;99.90;;;;;;6223144;23;20194;-69
2022/10/28 09:35:14;;;;;;;6.85;5.40;;;24.80;99.90;;;;;;6223583;23;20601;-68
2022/10/28 09:37:56;;;;;;;8.70;6.18;;;24.80;99.90;;;;;;6224287;23;20182;-68
2022/10/28 09:40:26;;;;;;;6.68;5.47;;;24.80;99.90;;;;;;6226261;23;20131;-68
2022/10/28 09:43:16;;;;;;;8.48;4.63;;;24.40;99.90;;;;;;6225564;23;20151;-68
2022/10/28 09:45:45;;;;;;;4.88;4.50;;;24.00;99.90;;;;;;6221867;23;20548;-68
2022/10/28 09:48:23;;;;;;;5.50;4.05;;;23.90;99.90;;;;;;6219732;23;20171;-68
2022/10/28 09:50:51;;;;;;;8.15;4.38;;;23.80;99.90;;;;;;6219139;23;20139;-68
2022/10/28 09:53:17;;;;;;;10.07;4.00;;;24.00;99.90;;;;;;6207382;23;20162;-68
2022/10/28 09:55:42;;;;;;;10.80;4.65;;;24.40;99.90;;;;;;6219343;23;20154;-68
2022/10/28 09:58:11;;;;;;;8.65;5.15;;;24.50;99.90;;;;;;6220558;23;20197;-68
2022/10/28 10:00:37;;;;;;;6.70;4.97;;;24.70;99.90;;;;;;6220228;23;20169;-69
2022/10/28 10:03:04;;;;;;;6.57;5.03;;;24.80;99.90;;;;;;6209108;23;20158;-69
2022/10/28 10:05:33;;;;;;;4.53;3.60;;;24.80;99.90;;;;;;6193219;23;20202;-69
2022/10/28 10:08:03;;;;;;;5.47;4.60;;;24.70;99.90;;;;;;6220158;23;20175;-68
2022/10/28 10:10:48;;;;;;;8.02;5.38;;;24.60;99.90;;;;;;6220512;23;20156;-68
2022/10/28 10:13:18;;;;;;;4.70;4.00;;;24.40;99.90;;;;;;6220411;23;20143;-69
2022/10/28 10:15:58;;;;;;;8.10;4.97;;;24.10;99.90;;;;;;6208647;23;20191;-69
2022/10/28 10:18:28;;;;;;;7.28;4.18;;;23.90;99.90;;;;;;6218712;23;20240;-68
2022/10/28 10:20:58;;;;;;;10.75;6.03;;;23.70;99.90;;;;;;6220052;23;20154;-69
2022/10/28 10:23:36;;;;;;;7.47;4.10;;;23.50;99.90;;;;;;6209095;23;20146;-68
2022/10/28 10:26:04;;;;;;;9.63;4.45;;;23.60;99.90;;;;;;6212168;23;20158;-68
2022/10/28 10:28:31;;;;;;;7.90;4.82;;;23.70;99.90;;;;;;6224404;23;20188;-68
2022/10/28 10:30:59;;;;;;;5.53;4.53;;;23.90;99.90;;;;;;6224231;23;20151;-68
2022/10/28 10:33:32;;;;;;;5.65;4.22;;;24.10;99.90;;;;;;6224443;23;20599;-68
2022/10/28 10:36:00;;;;;;;6.60;4.65;;;24.20;99.90;;;;;;6224439;23;20157;-68
2022/10/28 10:38:28;;;;;;;5.47;4.65;;;24.30;99.90;;;;;;6212623;23;20594;-69
2022/10/28 10:40:54;;;;;;;14.98;5.57;;;24.40;99.90;;;;;;6224099;23;20147;-69
2022/10/28 10:43:31;;;;;;;8.40;4.25;;;24.60;99.90;;;;;;6213048;23;20160;-68
2022/10/28 10:46:11;;;;;;;4.72;4.25;;;24.90;99.90;;;;;;6224374;23;20496;-69
2022/10/28 10:48:37;;;;;;;7.07;5.13;;;25.20;99.90;;;;;;6223415;23;20171;-68
2022/10/28 10:51:23;;;;;;;6.20;5.28;;;25.30;99.90;;;;;;6212462;23;20181;-69
2022/10/28 10:53:53;;;;;;;5.18;4.43;;;25.10;99.90;;;;;;6223641;23;20532;-68
2022/10/28 10:56:25;;;;;;;10.32;4.47;;;24.80;99.90;;;;;;6224461;23;20150;-68
2022/10/28 10:58:53;;;;;;;6.88;4.70;;;24.80;99.90;;;;;;6224162;23;20210;-68
2022/10/28 11:01:26;;;;;;;7.22;3.70;;;24.90;99.90;;;;;;6223981;23;20189;-68
2022/10/28 11:03:57;;;;;;;9.15;4.63;;;25.30;99.90;;;;;;6212729;23;20143;-69
2022/10/28 11:06:27;;;;;;;6.22;4.38;;;25.80;99.90;;;;;;6224230;23;20147;-69
2022/10/28 11:09:01;;;;;;;9.80;4.72;;;26.20;99.90;;;;;;6224343;23;20170;-69
2022/10/28 11:11:40;;;;;;;8.50;3.75;;;26.70;99.90;;;;;;6223890;23;20137;-69
2022/10/28 11:14:28;;;;;;;5.32;3.78;;;27.20;99.90;;;;;;6224101;23;20173;-68
2022/10/28 11:16:59;;;;;;;7.55;4.22;;;27.70;99.90;;;;;;6224205;23;20221;-68
2022/10/28 11:19:34;;;;;;;4.85;3.88;;;28.10;99.90;;;;;;6211838;23;20176;-69
2022/10/28 11:22:06;;;;;;;8.88;4.60;;;28.40;99.90;;;;;;6223752;23;20131;-68
2022/10/28 11:24:51;;;;;;;4.80;3.78;;;28.70;99.90;;;;;;6222446;23;20143;-69
2022/10/28 11:27:49;;;;;;;5.95;3.67;;;28.70;99.90;;;;;;6212288;23;20143;-69
2022/10/28 11:30:24;;;;;;;6.18;4.65;;;28.80;99.90;;;;;;6223788;23;20218;-69
2022/10/28 11:33:14;;;;;;;7.13;4.00;;;28.90;99.90;;;;;;6223871;23;20135;-69
2022/10/28 11:35:51;;;;;;;6.55;4.15;;;28.90;99.90;;;;;;6223929;23;20210;-68
2022/10/28 11:38:38;;;;;;;7.40;4.28;;;28.80;99.90;;;;;;6223389;23;20530;-68
2022/10/28 11:41:09;;;;;;;6.10;4.80;;;28.70;99.90;;;;;;6186937;23;20238;-69
2022/10/28 11:43:56;;;;;;;6.35;4.57;;;28.50;99.90;;;;;;6223766;23;20139;-69
2022/10/28 11:46:43;;;;;;;3.83;3.33;;;28.30;99.90;;;;;;6187259;23;20147;-69
2022/10/28 11:49:36;;;;;;;4.30;3.90;;;28.10;99.90;;;;;;6223473;23;20545;-69
2022/10/28 11:52:27;;;;;;;8.75;4.05;;;28.00;99.90;;;;;;6223849;23;20138;-69
2022/10/28 11:55:33;;;;;;;4.45;3.55;;;27.80;99.90;;;;;;6223738;23;20144;-69
2022/10/28 11:58:24;;;;;;;7.38;4.85;;;27.70;99.90;;;;;;6223627;23;20185;-69
2022/10/28 12:01:06;;;;;;;5.15;3.97;;;27.60;99.90;;;;;;6223043;23;20214;-69
2022/10/28 12:04:02;;;;;;;5.78;3.83;;;27.60;99.90;;;;;;6185677;23;20143;-69
2022/10/28 12:06:38;;;;;;;6.15;4.03;;;27.60;99.90;;;;;;6223672;23;20150;-69
2022/10/28 12:09:37;;;;;;;4.13;3.72;;;27.60;99.90;;;;;;6223302;23;20509;-68
2022/10/28 12:12:39;;;;;;;8.60;3.70;;;27.60;99.90;;;;;;6222130;23;20486;-68
2022/10/28 12:15:21;;;;;;;8.68;3.50;;;27.80;99.90;;;;;;6223622;23;20174;-69
2022/10/28 12:17:52;;;;;;;6.57;3.78;;;27.70;99.90;;;;;;6223549;23;20257;-68
2022/10/28 12:20:49;;;;;;;10.38;3.97;;;27.70;99.90;;;;;;6223483;23;20598;-69
2022/10/28 12:23:18;;;;;;;5.30;4.22;;;27.70;99.90;;;;;;6222763;23;20138;-68
2022/10/28 12:25:47;;;;;;;5.60;4.47;;;27.50;99.90;;;;;;6223522;23;20230;-68
2022/10/28 12:28:32;;;;;;;4.55;4.15;;;27.40;99.90;;;;;;6223481;23;20517;-69
2022/10/28 12:30:58;;;;;;;5.60;3.88;;;27.40;99.90;;;;;;6223457;23;20173;-69
2022/10/28 12:33:30;;;;;;;5.80;3.88;;;27.40;99.90;;;;;;6223682;23;20151;-69
2022/10/28 12:36:07;;;;;;;7.07;4.50;;;27.30;99.90;;;;;;6223588;23;20135;-69
2022/10/28 12:38:37;;;;;;;6.30;4.40;;;27.20;99.90;;;;;;6223351;23;20193;-69
2022/10/28 12:41:42;;;;;;;5.10;4.13;;;27.00;99.90;;;;;;6222880;23;20588;-69
2022/10/28 12:44:13;;;;;;;6.55;4.05;;;27.00;99.90;;;;;;6223309;23;20204;-68
2022/10/28 12:47:01;;;;;;;7.18;3.90;;;27.10;99.90;;;;;;6223396;23;20142;-69
2022/10/28 12:49:45;;;;;;;4.50;4.10;;;27.20;99.90;;;;;;6202212;23;20171;-69
2022/10/28 12:52:29;;;;;;;4.93;4.43;;;27.20;99.90;;;;;;6211666;23;20233;-69
2022/10/28 12:55:13;;;;;;;5.55;4.10;;;27.20;99.90;;;;;;6223540;23;20143;-69
2022/10/28 12:57:43;;;;;;;7.15;3.67;;;27.10;99.90;;;;;;6211552;23;20794;-69
2022/10/28 13:00:12;;;;;;;4.40;3.78;;;27.20;99.90;;;;;;6223468;23;20167;-69
2022/10/28 13:02:44;;;;;;;10.00;4.20;;;27.30;99.90;;;;;;6223308;23;20227;-69
2022/10/28 13:05:30;;;;;;;3.63;3.28;;;27.30;99.90;;;;;;6223430;23;20138;-69
2022/10/28 13:08:04;;;;;;;4.63;3.22;;;27.10;99.90;;;;;;6223311;23;20166;-69